createdAt,value
2022-08-19T00:00:59.191Z,4.13
2022-08-19T00:03:25.931Z,4.63
2022-08-19T00:05:52.669Z,6.50
2022-08-19T00:08:19.501Z,5.82
2022-08-19T00:10:46.238Z,7.85
2022-08-19T00:13:13.004Z,7.60
2022-08-19T00:15:39.808Z,4.55
2022-08-19T00:18:07.893Z,7.05
2022-08-19T00:20:35.249Z,3.90
2022-08-19T00:23:01.974Z,5.63
2022-08-19T00:25:30.651Z,4.90
2022-08-19T00:27:57.653Z,3.80
2022-08-19T00:30:24.864Z,5.63
2022-08-19T00:32:51.776Z,5.72
2022-08-19T00:35:20.164Z,5.57
2022-08-19T00:37:48.610Z,5.63
2022-08-19T00:40:16.111Z,3.78
2022-08-19T00:42:42.980Z,4.30
2022-08-19T00:45:13.131Z,3.58
2022-08-19T00:47:40.139Z,5.30
2022-08-19T00:50:08.814Z,3.25
2022-08-19T00:52:40.343Z,3.55
2022-08-19T00:55:09.341Z,3.63
2022-08-19T00:57:38.790Z,3.08
2022-08-19T01:00:08.614Z,3.17
2022-08-19T01:02:36.479Z,3.40
2022-08-19T01:05:07.518Z,5.00
2022-08-19T01:07:38.409Z,3.05
2022-08-19T01:10:08.492Z,3.33
2022-08-19T01:12:35.857Z,3.35
2022-08-19T01:15:03.787Z,2.88
2022-08-19T01:17:30.730Z,3.90
2022-08-19T01:19:57.539Z,5.13
2022-08-19T01:22:33.647Z,1.92
2022-08-19T01:25:01.277Z,2.85
2022-08-19T01:27:29.516Z,3.08
2022-08-19T01:30:11.964Z,3.72
2022-08-19T01:32:38.728Z,3.35
2022-08-19T01:35:06.308Z,4.63
2022-08-19T01:37:47.957Z,2.47
2022-08-19T01:40:16.286Z,2.83
2022-08-19T01:42:43.105Z,2.70
2022-08-19T01:45:10.754Z,4.05
2022-08-19T01:47:37.982Z,2.30
2022-08-19T01:50:06.649Z,1.88
2022-08-19T01:52:35.278Z,2.50
2022-08-19T01:55:04.546Z,3.55
2022-08-19T01:57:31.393Z,1.27
2022-08-19T01:59:58.251Z,3.17
2022-08-19T02:02:24.986Z,3.63
2022-08-19T02:04:51.700Z,3.22
2022-08-19T02:07:20.218Z,3.33
2022-08-19T02:09:46.959Z,5.88
2022-08-19T02:12:16.062Z,1.92
2022-08-19T02:14:43.529Z,1.85
2022-08-19T02:17:10.262Z,1.50
2022-08-19T02:19:39.087Z,2.13
2022-08-19T02:22:07.979Z,2.13
2022-08-19T02:24:34.721Z,1.10
2022-08-19T02:27:01.433Z,1.35
2022-08-19T02:29:29.506Z,1.83
2022-08-19T02:31:56.242Z,3.65
2022-08-19T02:34:22.966Z,2.75
2022-08-19T02:36:51.978Z,2.75
2022-08-19T02:39:19.422Z,2.20
2022-08-19T02:41:46.231Z,4.82
2022-08-19T02:44:29.201Z,2.30
2022-08-19T02:46:58.943Z,1.95
2022-08-19T02:49:25.695Z,2.65
2022-08-19T02:51:52.451Z,3.53
2022-08-19T02:54:19.494Z,2.22
2022-08-19T02:56:46.249Z,3.67
2022-08-19T02:59:13.393Z,3.88
2022-08-19T03:01:42.325Z,3.35
2022-08-19T03:04:13.861Z,2.85
2022-08-19T03:06:42.667Z,2.58
2022-08-19T03:09:10.862Z,5.38
2022-08-19T03:11:38.450Z,3.28
2022-08-19T03:14:06.552Z,2.60
2022-08-19T03:16:42.187Z,3.03
2022-08-19T03:19:10.275Z,4.57
2022-08-19T03:21:37.314Z,4.05
2022-08-19T03:24:06.708Z,3.60
2022-08-19T03:26:33.636Z,4.07
2022-08-19T03:29:04.836Z,5.07
2022-08-19T03:31:44.350Z,7.72
2022-08-19T03:34:15.839Z,4.07
2022-08-19T03:36:42.809Z,5.80
2022-08-19T03:39:11.183Z,5.35
2022-08-19T03:41:45.680Z,9.30
2022-08-19T03:44:17.860Z,6.13
2022-08-19T03:46:46.664Z,5.30
2022-08-19T03:49:15.156Z,6.30
2022-08-19T03:51:43.063Z,4.13
2022-08-19T03:54:13.217Z,10.32
2022-08-19T03:56:42.799Z,7.65
2022-08-19T03:59:12.126Z,7.22
2022-08-19T04:01:38.887Z,6.82
2022-08-19T04:04:05.718Z,6.75
2022-08-19T04:06:38.774Z,8.07
2022-08-19T04:11:43.508Z,7.25
2022-08-19T04:14:12.909Z,8.40
2022-08-19T04:16:39.688Z,10.57
2022-08-19T04:19:07.354Z,10.15
2022-08-19T04:21:35.563Z,9.95
2022-08-19T04:24:04.081Z,7.28
2022-08-19T04:26:33.861Z,7.20
2022-08-19T04:29:02.198Z,6.05
2022-08-19T04:31:30.892Z,7.38
2022-08-19T04:34:00.077Z,7.80
2022-08-19T04:36:28.791Z,9.85
2022-08-19T04:38:58.907Z,13.02
2022-08-19T04:41:26.636Z,9.00
2022-08-19T04:43:53.414Z,12.40
2022-08-19T04:46:40.170Z,6.93
2022-08-19T04:49:10.481Z,10.60
2022-08-19T04:51:42.665Z,8.87
2022-08-19T04:54:11.191Z,10.18
2022-08-19T04:56:39.429Z,9.75
2022-08-19T04:59:06.345Z,9.63
2022-08-19T05:01:34.214Z,10.43
2022-08-19T05:04:01.862Z,7.30
2022-08-19T05:06:28.769Z,12.25
2022-08-19T05:08:55.841Z,10.32
2022-08-19T05:11:26.750Z,11.27
2022-08-19T05:13:53.925Z,9.68
2022-08-19T05:16:22.686Z,11.55
2022-08-19T05:18:50.062Z,7.97
2022-08-19T05:21:18.921Z,8.88
2022-08-19T05:23:45.667Z,10.52
2022-08-19T05:26:12.542Z,11.32
2022-08-19T05:28:40.643Z,12.75
2022-08-19T05:31:07.449Z,12.55
2022-08-19T05:33:34.174Z,14.00
2022-08-19T05:36:02.613Z,13.93
2022-08-19T05:38:29.558Z,14.63
2022-08-19T05:40:56.610Z,13.55
2022-08-19T05:43:23.355Z,13.10
2022-08-19T05:45:51.430Z,12.00
2022-08-19T05:48:18.327Z,10.65
2022-08-19T05:50:45.075Z,12.27
2022-08-19T05:53:11.836Z,12.70
2022-08-19T05:55:38.592Z,14.02
2022-08-19T05:58:05.487Z,13.30
2022-08-19T06:00:32.319Z,11.07
2022-08-19T06:03:00.703Z,15.15
2022-08-19T06:05:44.808Z,17.98
2022-08-19T06:08:17.118Z,12.48
2022-08-19T06:10:44.883Z,15.15
2022-08-19T06:13:11.645Z,14.07
2022-08-19T06:15:38.362Z,17.90
2022-08-19T06:18:06.435Z,13.35
2022-08-19T06:20:54.624Z,14.40
2022-08-19T06:23:19.997Z,16.48
2022-08-19T06:25:51.207Z,16.33
2022-08-19T06:28:18.184Z,15.63
2022-08-19T06:30:45.185Z,17.25
2022-08-19T06:33:13.320Z,16.30
2022-08-19T06:35:40.842Z,15.73
2022-08-19T06:38:07.654Z,17.75
2022-08-19T06:40:34.450Z,18.23
2022-08-19T06:43:02.632Z,18.52
2022-08-19T06:45:34.905Z,19.60
2022-08-19T06:48:03.261Z,15.43
2022-08-19T06:50:31.537Z,17.73
2022-08-19T06:52:58.276Z,14.85
2022-08-19T06:55:31.163Z,18.20
2022-08-19T06:58:02.593Z,21.40
2022-08-19T07:03:05.967Z,15.95
2022-08-19T07:05:39.487Z,18.88
2022-08-19T07:08:06.309Z,17.42
2022-08-19T07:10:33.065Z,17.85
2022-08-19T07:12:59.839Z,22.63
2022-08-19T07:15:26.617Z,21.83
2022-08-19T07:17:53.355Z,22.42
2022-08-19T07:20:20.338Z,18.58
2022-08-19T07:22:48.555Z,19.42
2022-08-19T07:25:15.546Z,19.60
2022-08-19T07:27:42.322Z,18.17
2022-08-19T07:30:13.585Z,19.60
2022-08-19T07:32:40.424Z,18.92
2022-08-19T07:35:08.450Z,22.33
2022-08-19T07:37:35.239Z,22.23
2022-08-19T07:40:05.558Z,16.70
2022-08-19T07:42:32.903Z,19.05
2022-08-19T07:44:59.856Z,21.58
2022-08-19T07:47:49.645Z,22.05
2022-08-19T07:50:13.645Z,21.77
2022-08-19T07:52:40.826Z,24.50
2022-08-19T07:55:39.909Z,23.95
2022-08-19T07:57:57.435Z,26.30
2022-08-19T08:00:24.443Z,26.30
2022-08-19T08:02:51.933Z,22.30
2022-08-19T08:05:22.507Z,23.38
2022-08-19T08:07:49.310Z,27.77
2022-08-19T08:10:20.810Z,24.75
2022-08-19T08:13:08.807Z,25.00
2022-08-19T08:15:40.039Z,24.55
2022-08-19T08:18:09.138Z,19.27
2022-08-19T08:20:36.184Z,24.17
2022-08-19T08:23:03.091Z,23.80
2022-08-19T08:25:32.467Z,23.60
2022-08-19T08:28:01.068Z,23.67
2022-08-19T08:30:31.217Z,27.00
2022-08-19T08:32:59.695Z,27.50
2022-08-19T08:35:26.507Z,35.88
2022-08-19T08:37:55.862Z,26.67
2022-08-19T08:40:29.559Z,29.15
2022-08-19T08:45:33.554Z,33.00
2022-08-19T08:48:21.939Z,31.83
2022-08-19T08:50:51.990Z,35.75
2022-08-19T08:53:29.199Z,26.77
2022-08-19T08:55:57.818Z,28.95
2022-08-19T08:58:32.586Z,26.33
2022-08-19T09:00:59.337Z,28.02
2022-08-19T09:03:31.419Z,29.88
2022-08-19T09:06:02.997Z,27.83
2022-08-19T09:08:40.205Z,24.90
2022-08-19T09:11:10.704Z,29.08
2022-08-19T09:13:50.894Z,26.20
2022-08-19T09:16:21.168Z,32.00
2022-08-19T09:18:50.417Z,25.73
2022-08-19T09:21:17.334Z,29.33
2022-08-19T09:23:44.220Z,30.20
2022-08-19T09:26:13.331Z,28.88
2022-08-19T09:28:48.876Z,26.17
2022-08-19T09:31:19.214Z,29.92
2022-08-19T09:33:46.107Z,30.50
2022-08-19T09:36:24.336Z,27.58
2022-08-19T09:39:01.477Z,29.35
2022-08-19T09:41:28.865Z,26.08
2022-08-19T09:43:59.239Z,25.15
2022-08-19T09:46:28.705Z,25.70
2022-08-19T09:48:58.964Z,31.55
2022-08-19T09:51:33.599Z,29.80
2022-08-19T09:54:04.548Z,25.63
2022-08-19T09:56:34.118Z,28.45
2022-08-19T09:59:03.838Z,24.08
2022-08-19T10:01:32.855Z,32.15
2022-08-19T10:04:01.438Z,25.83
2022-08-19T10:06:45.636Z,30.45
2022-08-19T10:09:15.415Z,27.15
2022-08-19T10:11:52.199Z,25.42
2022-08-19T10:14:22.458Z,21.88
2022-08-19T10:16:49.216Z,23.50
2022-08-19T10:19:15.984Z,24.05
2022-08-19T10:21:52.793Z,21.60
2022-08-19T10:24:19.906Z,23.42
2022-08-19T10:26:46.661Z,21.42
2022-08-19T10:29:13.958Z,20.33
2022-08-19T10:32:02.328Z,20.83
2022-08-19T10:34:31.423Z,25.85
2022-08-19T10:37:01.323Z,18.33
2022-08-19T10:39:30.557Z,24.85
2022-08-19T10:41:57.509Z,16.58
2022-08-19T10:44:24.755Z,15.95
2022-08-19T10:46:58.673Z,12.40
2022-08-19T10:49:28.379Z,10.95
2022-08-19T10:51:55.771Z,10.65
2022-08-19T10:54:24.318Z,11.00
2022-08-19T10:56:58.231Z,8.27
2022-08-19T10:59:27.703Z,12.30
2022-08-19T11:01:55.790Z,10.85
2022-08-19T11:04:28.905Z,8.52
2022-08-19T11:06:57.765Z,6.03
2022-08-19T11:09:33.581Z,7.40
2022-08-19T11:12:02.622Z,5.35
2022-08-19T11:14:32.132Z,4.57
2022-08-19T11:17:01.365Z,4.03
2022-08-19T11:19:28.116Z,2.85
2022-08-19T11:21:54.886Z,3.72
2022-08-19T11:24:27.074Z,2.88
2022-08-19T11:26:55.386Z,4.38
2022-08-19T11:29:22.700Z,1.58
2022-08-19T11:31:50.740Z,2.13
2022-08-19T11:34:20.615Z,1.45
2022-08-19T11:36:48.515Z,1.42
2022-08-19T11:39:17.209Z,2.00
2022-08-19T11:41:45.744Z,1.48
2022-08-19T11:44:12.990Z,1.55
2022-08-19T11:46:39.698Z,1.48
2022-08-19T11:49:10.735Z,2.72
2022-08-19T11:54:07.491Z,2.08
2022-08-19T11:56:34.246Z,2.53
2022-08-19T11:59:02.734Z,3.20
2022-08-19T12:01:30.015Z,2.97
2022-08-19T12:03:57.800Z,3.30
2022-08-19T12:06:27.179Z,2.63
2022-08-19T12:08:53.979Z,3.10
2022-08-19T12:11:20.779Z,4.63
2022-08-19T12:13:47.741Z,2.83
2022-08-19T12:16:18.374Z,2.88
2022-08-19T12:18:45.779Z,2.33
2022-08-19T12:21:13.111Z,3.22
2022-08-19T12:23:40.253Z,3.17
2022-08-19T12:26:07.242Z,4.00
2022-08-19T12:28:34.029Z,8.02
2022-08-19T12:31:00.730Z,3.63
2022-08-19T12:33:28.826Z,3.25
2022-08-19T12:36:00.535Z,3.80
2022-08-19T12:38:27.367Z,3.83
2022-08-19T12:40:58.344Z,3.80
2022-08-19T12:43:26.877Z,3.65
2022-08-19T12:45:53.650Z,4.25
2022-08-19T12:48:34.451Z,5.15
2022-08-19T12:51:08.016Z,5.28
2022-08-19T12:53:34.857Z,4.78
2022-08-19T12:56:07.431Z,3.50
2022-08-19T12:58:38.279Z,3.83
2022-08-19T13:01:10.195Z,3.75
2022-08-19T13:03:40.456Z,5.38
2022-08-19T13:06:09.824Z,6.22
2022-08-19T13:08:36.664Z,6.20
2022-08-19T13:11:11.873Z,5.70
2022-08-19T13:13:39.909Z,5.60
2022-08-19T13:16:07.080Z,4.32
2022-08-19T13:18:33.873Z,4.60
2022-08-19T13:21:03.618Z,4.72
2022-08-19T13:23:31.863Z,2.42
2022-08-19T13:25:59.698Z,3.75
2022-08-19T13:28:29.355Z,2.08
2022-08-19T13:30:56.233Z,2.30
2022-08-19T13:33:22.977Z,2.63
2022-08-19T13:35:51.523Z,2.55
2022-08-19T13:38:21.816Z,3.10
2022-08-19T13:40:51.596Z,4.70
2022-08-19T13:43:22.828Z,2.55
2022-08-19T13:45:51.693Z,3.97
2022-08-19T13:48:18.433Z,4.45
2022-08-19T13:50:46.517Z,3.30
2022-08-19T13:53:13.354Z,5.15
2022-08-19T13:55:41.197Z,5.32
2022-08-19T13:58:10.704Z,5.10
2022-08-19T14:00:40.327Z,5.10
2022-08-19T14:03:09.247Z,7.93
2022-08-19T14:05:36.605Z,9.02
2022-08-19T14:08:04.373Z,11.88
2022-08-19T14:10:31.343Z,13.60
2022-08-19T14:13:03.510Z,10.00
2022-08-19T14:15:32.748Z,11.00
2022-08-19T14:17:59.845Z,10.60
2022-08-19T14:20:27.197Z,13.60
2022-08-19T14:22:55.010Z,11.32
2022-08-19T14:25:24.506Z,13.85
2022-08-19T14:27:51.784Z,10.00
2022-08-19T14:30:21.533Z,14.52
2022-08-19T14:32:49.651Z,10.18
2022-08-19T14:35:17.463Z,9.60
2022-08-19T14:37:46.208Z,9.35
2022-08-19T14:40:14.286Z,12.98
2022-08-19T14:42:41.186Z,11.50
2022-08-19T14:45:09.453Z,10.73
2022-08-19T14:47:36.262Z,9.23
2022-08-19T14:50:17.734Z,9.98
2022-08-19T14:52:45.491Z,14.85
2022-08-19T14:55:12.257Z,10.93
2022-08-19T14:57:41.031Z,10.55
2022-08-19T15:00:09.483Z,10.45
2022-08-19T15:02:36.305Z,10.57
2022-08-19T15:05:03.238Z,11.75
2022-08-19T15:07:31.316Z,11.30
2022-08-19T15:09:58.226Z,10.02
2022-08-19T15:12:25.591Z,10.20
2022-08-19T15:14:56.173Z,10.70
2022-08-19T15:17:45.164Z,7.32
2022-08-19T15:20:12.168Z,11.40
2022-08-19T15:22:40.872Z,7.72
2022-08-19T15:25:11.639Z,6.57
2022-08-19T15:27:38.859Z,7.32
2022-08-19T15:30:06.941Z,5.70
2022-08-19T15:32:33.675Z,6.43
2022-08-19T15:35:00.413Z,6.60
2022-08-19T15:37:27.166Z,6.68
2022-08-19T15:39:55.362Z,7.05
2022-08-19T15:42:29.666Z,5.60
2022-08-19T15:45:00.417Z,6.20
2022-08-19T15:47:29.190Z,4.70
2022-08-19T15:50:04.727Z,6.43
2022-08-19T15:52:31.511Z,7.07
2022-08-19T15:55:01.010Z,6.63
2022-08-19T15:57:27.737Z,5.18
2022-08-19T15:59:54.529Z,4.22
2022-08-19T16:02:23.522Z,4.88
2022-08-19T16:04:59.046Z,4.32
2022-08-19T16:07:25.835Z,5.05
2022-08-19T16:09:52.577Z,2.65
2022-08-19T16:12:20.705Z,1.25
2022-08-19T16:14:47.441Z,2.05
2022-08-19T16:17:14.197Z,1.35
2022-08-19T16:19:40.988Z,2.22
2022-08-19T16:22:08.150Z,1.45
2022-08-19T16:24:34.913Z,3.05
2022-08-19T16:27:01.679Z,1.75
2022-08-19T16:29:34.747Z,1.40
2022-08-19T16:32:11.513Z,2.38
2022-08-19T16:34:39.045Z,2.13
2022-08-19T16:37:05.980Z,2.03
2022-08-19T16:39:32.951Z,1.90
2022-08-19T16:41:59.756Z,2.05
2022-08-19T16:44:26.690Z,1.85
2022-08-19T16:46:59.160Z,3.05
2022-08-19T16:49:53.183Z,2.83
2022-08-19T16:52:17.513Z,2.10
2022-08-19T16:54:46.281Z,3.30
2022-08-19T16:57:15.339Z,2.53
2022-08-19T16:59:48.093Z,2.38
2022-08-19T17:02:18.079Z,1.98
2022-08-19T17:04:45.047Z,1.95
2022-08-19T17:07:24.662Z,2.60
2022-08-19T17:09:51.413Z,2.30
2022-08-19T17:12:18.138Z,2.90
2022-08-19T17:14:45.689Z,2.15
2022-08-19T17:17:12.501Z,2.80
2022-08-19T17:19:41.176Z,2.42
2022-08-19T17:22:08.430Z,4.28
2022-08-19T17:24:38.098Z,3.28
2022-08-19T17:27:07.344Z,3.63
2022-08-19T17:29:34.392Z,2.95
2022-08-19T17:32:02.051Z,4.60
2022-08-19T17:34:28.833Z,3.53
2022-08-19T17:36:56.959Z,2.92
2022-08-19T17:39:24.062Z,3.85
2022-08-19T17:41:50.848Z,5.60
2022-08-19T17:44:17.602Z,4.28
2022-08-19T17:46:44.296Z,3.50
2022-08-19T17:49:11.040Z,3.80
2022-08-19T17:51:42.386Z,3.25
2022-08-19T17:54:12.791Z,4.97
2022-08-19T17:56:39.872Z,4.28
2022-08-19T17:59:09.105Z,4.35
2022-08-19T18:04:22.452Z,4.50
2022-08-19T18:06:53.131Z,5.43
2022-08-19T18:09:23.904Z,6.72
2022-08-19T18:11:52.588Z,4.47
2022-08-19T18:14:20.175Z,9.13
2022-08-19T18:16:46.921Z,9.55
2022-08-19T18:19:13.842Z,9.07
2022-08-19T18:21:40.614Z,6.70
2022-08-19T18:24:07.619Z,6.88
2022-08-19T18:26:35.699Z,4.93
2022-08-19T18:29:02.500Z,7.00
2022-08-19T18:31:29.239Z,6.47
2022-08-19T18:33:56.021Z,16.05
2022-08-19T18:36:50.120Z,4.78
2022-08-19T18:39:09.479Z,6.40
2022-08-19T18:41:37.756Z,4.07
2022-08-19T18:44:04.508Z,6.22
2022-08-19T18:46:32.923Z,5.63
2022-08-19T18:49:03.690Z,6.43
2022-08-19T18:51:30.857Z,5.95
2022-08-19T18:53:58.414Z,5.25
2022-08-19T18:56:27.058Z,5.43
2022-08-19T18:58:55.542Z,6.35
2022-08-19T19:01:27.328Z,6.72
2022-08-19T19:03:55.357Z,5.97
2022-08-19T19:06:24.407Z,6.00
2022-08-19T19:08:52.694Z,4.97
2022-08-19T19:11:23.554Z,5.72
2022-08-19T19:13:50.385Z,5.22
2022-08-19T19:16:22.396Z,7.03
2022-08-19T19:18:51.612Z,5.25
2022-08-19T19:21:18.834Z,4.80
2022-08-19T19:23:45.716Z,5.15
2022-08-19T19:26:13.354Z,6.00
2022-08-19T19:28:41.932Z,5.90
2022-08-19T19:31:10.666Z,7.00
2022-08-19T19:33:38.771Z,4.72
2022-08-19T19:36:05.740Z,6.40
2022-08-19T19:38:32.451Z,8.43
2022-08-19T19:40:59.208Z,5.50
2022-08-19T19:43:26.013Z,4.57
2022-08-19T19:45:52.723Z,5.13
2022-08-19T19:48:19.630Z,4.53
2022-08-19T19:50:53.288Z,4.65
2022-08-19T19:53:23.581Z,7.20
2022-08-19T19:55:53.142Z,4.43
2022-08-19T19:58:21.238Z,5.47
2022-08-19T20:00:55.789Z,6.28
2022-08-19T20:03:22.572Z,5.63
2022-08-19T20:05:51.078Z,6.13
2022-08-19T20:08:19.017Z,5.05
2022-08-19T20:10:45.914Z,5.35
2022-08-19T20:13:13.370Z,6.38
2022-08-19T20:15:42.630Z,6.43
2022-08-19T20:18:10.733Z,5.22
2022-08-19T20:20:37.525Z,5.03
2022-08-19T20:23:05.604Z,4.90
2022-08-19T20:25:33.133Z,9.75
2022-08-19T20:27:59.949Z,4.43
2022-08-19T20:30:28.457Z,4.70
2022-08-19T20:32:57.791Z,6.60
2022-08-19T20:35:24.780Z,5.63
2022-08-19T20:37:56.120Z,8.63
2022-08-19T20:40:26.685Z,5.07
2022-08-19T20:42:53.699Z,6.47
2022-08-19T20:45:33.276Z,5.30
2022-08-19T20:48:00.617Z,6.82
2022-08-19T20:50:29.971Z,7.45
2022-08-19T20:52:57.248Z,5.80
2022-08-19T20:55:24.474Z,8.23
2022-08-19T20:57:52.653Z,7.65
2022-08-19T21:00:19.630Z,5.38
2022-08-19T21:02:46.395Z,5.68
2022-08-19T21:05:13.215Z,6.20
2022-08-19T21:07:39.984Z,6.15
2022-08-19T21:10:07.670Z,6.55
2022-08-19T21:12:34.616Z,6.35
2022-08-19T21:15:02.910Z,7.25
2022-08-19T21:17:29.661Z,5.53
2022-08-19T21:19:56.393Z,4.70
2022-08-19T21:22:23.135Z,5.05
2022-08-19T21:24:49.898Z,5.70
2022-08-19T21:27:17.011Z,7.10
2022-08-19T21:29:43.733Z,6.15
2022-08-19T21:32:14.093Z,5.13
2022-08-19T21:34:41.671Z,6.03
2022-08-19T21:37:13.949Z,6.35
2022-08-19T21:39:52.419Z,5.70
2022-08-19T21:42:19.173Z,7.72
2022-08-19T21:44:46.189Z,6.82
2022-08-19T21:47:14.278Z,5.35
2022-08-19T21:49:41.132Z,6.07
2022-08-19T21:52:08.170Z,5.78
2022-08-19T21:54:37.710Z,7.53
2022-08-19T21:57:06.997Z,6.95
2022-08-19T21:59:37.496Z,7.18
2022-08-19T22:02:19.012Z,9.25
2022-08-19T22:04:49.016Z,6.00
2022-08-19T22:07:16.355Z,6.70
2022-08-19T22:09:44.529Z,7.70
2022-08-19T22:12:21.333Z,7.78
2022-08-19T22:14:48.056Z,6.30
2022-08-19T22:17:14.810Z,6.43
2022-08-19T22:19:41.563Z,11.60
2022-08-19T22:22:09.773Z,5.72
2022-08-19T22:24:36.537Z,7.35
2022-08-19T22:27:03.418Z,7.35
2022-08-19T22:29:33.668Z,7.50
2022-08-19T22:32:00.978Z,9.70
2022-08-19T22:34:47.699Z,10.00
2022-08-19T22:37:15.810Z,8.88
2022-08-19T22:39:42.578Z,8.63
2022-08-19T22:42:09.345Z,10.45
2022-08-19T22:44:36.133Z,11.40
2022-08-19T22:47:02.913Z,9.77
2022-08-19T22:49:29.682Z,15.10
2022-08-19T22:51:56.401Z,10.05
2022-08-19T22:54:24.507Z,12.63
2022-08-19T22:56:51.366Z,12.30
2022-08-19T22:59:18.171Z,11.38
2022-08-19T23:01:44.956Z,12.02
2022-08-19T23:04:11.713Z,10.90
2022-08-19T23:06:41.846Z,13.35
2022-08-19T23:09:09.778Z,10.85
2022-08-19T23:11:42.138Z,9.90
2022-08-19T23:14:09.844Z,11.43
2022-08-19T23:16:36.567Z,12.63
2022-08-19T23:19:03.410Z,11.55
2022-08-19T23:21:30.407Z,11.23
2022-08-19T23:23:57.198Z,12.98
2022-08-19T23:26:24.069Z,11.63
2022-08-19T23:28:52.181Z,13.35
2022-08-19T23:31:18.914Z,10.52
2022-08-19T23:33:51.479Z,11.52
2022-08-19T23:36:20.516Z,16.05
2022-08-19T23:38:49.030Z,13.45
2022-08-19T23:41:19.669Z,14.63
2022-08-19T23:43:46.626Z,12.05
2022-08-19T23:46:27.638Z,10.68
2022-08-19T23:48:55.417Z,14.00
2022-08-19T23:51:22.140Z,11.15
2022-08-19T23:53:48.851Z,12.80
2022-08-19T23:56:15.657Z,13.20
2022-08-19T23:58:42.373Z,12.30
